createdAt,value
2019-02-17T00:01:26.960Z,36.70
2019-02-17T00:03:56.311Z,38.40
2019-02-17T00:06:25.596Z,40.97
2019-02-17T00:08:56.709Z,55.37
2019-02-17T00:11:26.289Z,57.37
2019-02-17T00:13:55.627Z,56.00
2019-02-17T00:16:24.926Z,52.97
2019-02-17T00:18:54.290Z,54.23
2019-02-17T00:21:23.737Z,56.57
2019-02-17T00:23:53.367Z,59.43
2019-02-17T00:26:25.022Z,55.97
2019-02-17T00:28:59.508Z,55.13
2019-02-17T00:31:28.397Z,54.17
2019-02-17T00:33:57.694Z,54.23
2019-02-17T00:36:30.062Z,54.63
2019-02-17T00:38:59.404Z,48.27
2019-02-17T00:41:28.748Z,47.30
2019-02-17T00:43:58.390Z,44.47
2019-02-17T00:46:29.642Z,41.47
2019-02-17T00:49:01.194Z,40.97
2019-02-17T00:51:33.711Z,45.40
2019-02-17T00:54:03.054Z,38.53
2019-02-17T00:56:33.376Z,39.60
2019-02-17T00:59:10.041Z,36.57
2019-02-17T01:01:39.320Z,36.33
2019-02-17T01:04:11.211Z,36.00
2019-02-17T01:06:43.300Z,35.10
2019-02-17T01:09:12.584Z,34.07
2019-02-17T01:11:41.885Z,35.83
2019-02-17T01:14:11.867Z,35.13
2019-02-17T01:16:41.461Z,34.47
2019-02-17T01:19:10.713Z,32.93
2019-02-17T01:21:40.307Z,33.47
2019-02-17T01:24:09.856Z,35.20
2019-02-17T01:26:40.501Z,31.50
2019-02-17T01:29:19.772Z,31.73
2019-02-17T01:31:41.165Z,32.00
2019-02-17T01:34:11.351Z,31.83
2019-02-17T01:36:40.658Z,31.30
2019-02-17T01:39:10.278Z,31.10
2019-02-17T01:41:39.554Z,32.10
2019-02-17T01:44:09.220Z,30.83
2019-02-17T01:46:38.753Z,30.37
2019-02-17T01:49:08.068Z,30.90
2019-02-17T01:51:37.694Z,31.63
2019-02-17T01:54:07.989Z,31.83
2019-02-17T01:56:37.228Z,32.63
2019-02-17T01:59:06.776Z,30.70
2019-02-17T02:01:36.098Z,28.73
2019-02-17T02:04:07.130Z,29.30
2019-02-17T02:06:36.525Z,32.03
2019-02-17T02:09:10.413Z,31.00
2019-02-17T02:11:39.762Z,30.17
2019-02-17T02:14:09.453Z,31.57
2019-02-17T02:16:38.700Z,30.90
2019-02-17T02:19:08.286Z,31.67
2019-02-17T02:21:37.618Z,31.13
2019-02-17T02:24:07.181Z,29.90
2019-02-17T02:26:36.480Z,29.33
2019-02-17T02:29:06.157Z,29.93
2019-02-17T02:31:35.420Z,29.97
2019-02-17T02:34:04.956Z,29.90
2019-02-17T02:36:35.121Z,29.13
2019-02-17T02:39:06.931Z,30.50
2019-02-17T02:41:36.194Z,29.87
2019-02-17T02:44:05.825Z,29.13
2019-02-17T02:46:35.077Z,30.17
2019-02-17T02:49:04.374Z,29.53
2019-02-17T02:51:33.913Z,30.37
2019-02-17T02:54:03.188Z,31.20
2019-02-17T02:56:32.457Z,31.20
2019-02-17T02:59:02.854Z,31.17
2019-02-17T03:01:32.745Z,33.53
2019-02-17T03:04:02.392Z,31.90
2019-02-17T03:07:03.144Z,31.47
2019-02-17T03:09:33.026Z,30.73
2019-02-17T03:12:02.308Z,31.47
2019-02-17T03:14:31.625Z,31.33
2019-02-17T03:17:01.252Z,32.33
2019-02-17T03:19:30.591Z,31.73
2019-02-17T03:21:59.866Z,31.27
2019-02-17T03:24:29.159Z,30.40
2019-02-17T03:26:58.420Z,29.23
2019-02-17T03:29:27.905Z,30.63
2019-02-17T03:32:00.013Z,28.33
2019-02-17T03:34:29.611Z,29.40
2019-02-17T03:36:58.966Z,28.63
2019-02-17T03:39:31.372Z,28.90
2019-02-17T03:42:00.711Z,27.87
2019-02-17T03:44:30.052Z,29.37
2019-02-17T03:46:59.342Z,26.20
2019-02-17T03:49:28.642Z,27.90
2019-02-17T03:51:58.217Z,27.83
2019-02-17T03:54:27.608Z,28.30
2019-02-17T03:56:56.866Z,27.83
2019-02-17T03:59:26.166Z,27.57
2019-02-17T04:01:57.343Z,27.73
2019-02-17T04:04:26.639Z,27.27
2019-02-17T04:06:55.910Z,26.47
2019-02-17T04:09:25.581Z,25.57
2019-02-17T04:11:58.227Z,25.23
2019-02-17T04:14:27.852Z,26.33
2019-02-17T04:16:57.449Z,26.40
2019-02-17T04:19:26.700Z,25.37
2019-02-17T04:21:58.788Z,26.73
2019-02-17T04:24:28.233Z,26.23
2019-02-17T04:26:57.552Z,25.80
2019-02-17T04:29:26.848Z,25.60
2019-02-17T04:31:59.249Z,27.47
2019-02-17T04:34:28.611Z,25.40
2019-02-17T04:36:57.901Z,26.50
2019-02-17T04:39:27.452Z,25.03
2019-02-17T04:41:58.076Z,27.13
2019-02-17T04:44:27.441Z,24.93
2019-02-17T04:46:56.897Z,27.50
2019-02-17T04:49:26.173Z,25.53
2019-02-17T04:51:57.772Z,26.30
2019-02-17T04:54:27.020Z,26.37
2019-02-17T04:56:56.345Z,26.23
2019-02-17T04:59:26.247Z,26.40
2019-02-17T05:01:58.397Z,25.63
2019-02-17T05:04:27.833Z,25.83
2019-02-17T05:06:57.410Z,26.60
2019-02-17T05:09:27.011Z,25.10
2019-02-17T05:11:58.351Z,24.00
2019-02-17T05:14:28.103Z,25.90
2019-02-17T05:16:57.710Z,25.50
2019-02-17T05:19:27.001Z,25.27
2019-02-17T05:21:59.279Z,27.23
2019-02-17T05:24:28.960Z,24.23
2019-02-17T05:26:58.244Z,24.80
2019-02-17T05:29:27.656Z,23.80
2019-02-17T05:32:00.036Z,25.10
2019-02-17T05:34:29.854Z,23.47
2019-02-17T05:36:59.142Z,23.67
2019-02-17T05:39:28.708Z,23.93
2019-02-17T05:42:00.118Z,24.33
2019-02-17T05:44:30.702Z,24.37
2019-02-17T05:47:00.025Z,25.47
2019-02-17T05:49:29.344Z,25.67
2019-02-17T05:52:01.351Z,24.37
2019-02-17T05:54:30.709Z,23.57
2019-02-17T05:57:00.254Z,25.13
2019-02-17T05:59:29.801Z,24.37
2019-02-17T06:02:02.568Z,24.63
2019-02-17T06:04:31.977Z,23.80
2019-02-17T06:07:01.270Z,25.07
2019-02-17T06:09:30.545Z,23.97
2019-02-17T06:12:00.113Z,24.20
2019-02-17T06:14:29.390Z,22.93
2019-02-17T06:16:58.681Z,25.60
2019-02-17T06:19:27.939Z,25.33
2019-02-17T06:21:58.406Z,24.03
2019-02-17T06:24:27.708Z,23.73
2019-02-17T06:26:57.248Z,22.97
2019-02-17T06:29:26.580Z,23.60
2019-02-17T06:31:58.797Z,23.17
2019-02-17T06:34:28.438Z,23.50
2019-02-17T06:36:57.791Z,21.70
2019-02-17T06:39:27.032Z,24.07
2019-02-17T06:41:57.667Z,24.67
2019-02-17T06:44:27.585Z,22.83
2019-02-17T06:46:59.885Z,23.27
2019-02-17T06:49:29.188Z,23.97
2019-02-17T06:52:01.870Z,23.43
2019-02-17T06:54:31.784Z,24.03
2019-02-17T06:57:23.517Z,23.17
2019-02-17T07:00:08.436Z,23.60
2019-02-17T07:02:37.771Z,22.80
2019-02-17T07:05:31.391Z,23.27
2019-02-17T07:08:00.773Z,23.93
2019-02-17T07:10:30.076Z,24.30
2019-02-17T07:12:59.346Z,23.03
2019-02-17T07:15:28.754Z,23.00
2019-02-17T07:17:59.501Z,23.40
2019-02-17T07:20:28.697Z,22.37
2019-02-17T07:22:57.986Z,22.20
2019-02-17T07:25:30.094Z,23.70
2019-02-17T07:28:00.780Z,22.67
2019-02-17T07:30:30.109Z,24.03
2019-02-17T07:32:59.488Z,23.60
2019-02-17T07:35:28.764Z,21.97
2019-02-17T07:38:00.860Z,23.20
2019-02-17T07:40:30.173Z,21.50
2019-02-17T07:42:59.459Z,22.70
2019-02-17T07:45:28.749Z,23.63
2019-02-17T07:48:00.988Z,24.70
2019-02-17T07:50:30.336Z,23.10
2019-02-17T07:52:59.647Z,23.27
2019-02-17T07:55:29.046Z,22.70
2019-02-17T07:58:01.456Z,24.00
2019-02-17T08:00:30.791Z,24.00
2019-02-17T08:03:00.101Z,24.03
2019-02-17T08:05:29.461Z,23.80
2019-02-17T08:08:00.874Z,24.73
2019-02-17T08:10:30.387Z,23.13
2019-02-17T08:13:02.206Z,25.10
2019-02-17T08:15:31.719Z,22.37
2019-02-17T08:18:03.969Z,23.40
2019-02-17T08:20:33.709Z,23.80
2019-02-17T08:23:03.033Z,23.50
2019-02-17T08:25:32.334Z,23.57
2019-02-17T08:28:01.712Z,23.10
2019-02-17T08:30:33.881Z,22.37
2019-02-17T08:33:03.629Z,24.10
2019-02-17T08:35:33.162Z,22.77
2019-02-17T08:38:03.552Z,23.23
2019-02-17T08:40:32.996Z,24.57
2019-02-17T08:43:02.415Z,22.80
2019-02-17T08:45:31.840Z,23.90
2019-02-17T08:48:04.064Z,23.37
2019-02-17T08:50:33.422Z,23.10
2019-02-17T08:53:04.832Z,23.57
2019-02-17T08:55:37.316Z,23.37
2019-02-17T08:58:08.444Z,23.50
2019-02-17T09:00:38.164Z,22.13
2019-02-17T09:03:07.482Z,22.63
2019-02-17T09:05:43.811Z,21.17
2019-02-17T09:08:07.912Z,21.17
2019-02-17T09:10:37.253Z,20.00
2019-02-17T09:13:06.549Z,19.43
2019-02-17T09:15:35.961Z,22.37
2019-02-17T09:18:05.443Z,19.70
2019-02-17T09:20:34.853Z,20.80
2019-02-17T09:23:04.266Z,18.87
2019-02-17T09:25:36.298Z,21.30
2019-02-17T09:28:20.264Z,20.67
2019-02-17T09:30:52.348Z,19.90
2019-02-17T09:33:33.580Z,19.53
2019-02-17T09:36:05.910Z,20.60
2019-02-17T09:38:37.248Z,20.67
2019-02-17T09:41:06.690Z,19.43
2019-02-17T09:43:36.105Z,19.87
2019-02-17T09:46:05.399Z,20.80
2019-02-17T09:48:34.713Z,20.67
2019-02-17T09:51:04.016Z,18.93
2019-02-17T09:53:34.410Z,19.97
2019-02-17T09:56:03.813Z,23.65
2019-02-17T09:58:33.167Z,19.33
2019-02-17T10:01:02.552Z,18.43
2019-02-17T10:03:31.852Z,18.17
2019-02-17T10:06:02.424Z,19.70
2019-02-17T10:08:31.720Z,19.37
2019-02-17T10:11:01.021Z,18.97
2019-02-17T10:13:30.476Z,19.13
2019-02-17T10:16:00.606Z,18.87
2019-02-17T10:18:30.037Z,19.43
2019-02-17T10:20:59.358Z,18.93
2019-02-17T10:23:28.652Z,18.57
2019-02-17T10:25:59.702Z,18.63
2019-02-17T10:28:41.882Z,18.20
2019-02-17T10:31:02.777Z,16.80
2019-02-17T10:33:32.082Z,17.80
2019-02-17T10:36:04.502Z,17.70
2019-02-17T10:38:33.903Z,17.97
2019-02-17T10:41:06.002Z,18.00
2019-02-17T10:43:35.401Z,16.97
2019-02-17T10:46:07.465Z,16.77
2019-02-17T10:48:36.901Z,18.90
2019-02-17T10:51:06.271Z,17.60
2019-02-17T10:53:35.692Z,18.10
2019-02-17T10:56:05.661Z,17.83
2019-02-17T10:58:35.108Z,17.17
2019-02-17T11:01:04.736Z,17.90
2019-02-17T11:03:34.032Z,16.83
2019-02-17T11:06:06.246Z,17.17
2019-02-17T11:08:35.587Z,17.10
2019-02-17T11:11:13.930Z,16.03
2019-02-17T11:13:43.201Z,16.97
2019-02-17T11:16:14.198Z,17.20
2019-02-17T11:18:43.499Z,16.73
2019-02-17T11:21:12.862Z,17.03
2019-02-17T11:23:42.063Z,17.10
2019-02-17T11:26:11.436Z,16.67
2019-02-17T11:28:42.712Z,17.07
2019-02-17T11:31:11.806Z,16.97
2019-02-17T11:33:41.160Z,16.93
2019-02-17T11:36:10.630Z,18.47
2019-02-17T11:38:39.961Z,15.87
2019-02-17T11:41:09.230Z,16.40
2019-02-17T11:43:38.602Z,16.43
2019-02-17T11:46:08.141Z,15.87
2019-02-17T11:48:37.544Z,15.63
2019-02-17T11:51:06.923Z,16.70
2019-02-17T11:53:36.221Z,17.60
2019-02-17T11:56:05.744Z,17.17
2019-02-17T11:58:35.130Z,17.07
2019-02-17T12:01:05.352Z,17.30
2019-02-17T12:03:35.061Z,17.80
2019-02-17T12:06:04.525Z,16.80
2019-02-17T12:08:33.966Z,17.80
2019-02-17T12:11:03.393Z,17.13
2019-02-17T12:13:32.772Z,16.57
2019-02-17T12:16:03.093Z,17.30
2019-02-17T12:18:32.574Z,16.93
2019-02-17T12:21:09.378Z,17.17
2019-02-17T12:23:44.570Z,16.73
2019-02-17T12:26:25.718Z,17.20
2019-02-17T12:29:28.479Z,17.87
2019-02-17T12:31:57.971Z,17.63
2019-02-17T12:34:27.427Z,17.33
2019-02-17T12:36:59.807Z,18.60
2019-02-17T12:39:29.446Z,17.93
2019-02-17T12:41:58.876Z,17.20
2019-02-17T12:44:28.246Z,17.13
2019-02-17T12:46:59.231Z,18.97
2019-02-17T12:49:30.974Z,17.60
2019-02-17T12:52:02.662Z,18.13
2019-02-17T12:54:32.067Z,18.23
2019-02-17T12:57:01.538Z,16.83
2019-02-17T12:59:31.050Z,17.63
2019-02-17T13:02:05.475Z,18.10
2019-02-17T13:04:34.872Z,17.43
2019-02-17T13:07:04.210Z,17.60
2019-02-17T13:09:33.739Z,17.43
2019-02-17T13:12:05.894Z,16.93
2019-02-17T13:14:35.247Z,18.50
2019-02-17T13:17:04.609Z,17.50
2019-02-17T13:19:33.916Z,17.67
2019-02-17T13:22:06.208Z,17.60
2019-02-17T13:24:35.522Z,17.57
2019-02-17T13:27:04.803Z,17.80
2019-02-17T13:29:34.152Z,18.33
2019-02-17T13:32:06.336Z,18.60
2019-02-17T13:34:36.973Z,16.70
2019-02-17T13:37:06.268Z,18.77
2019-02-17T13:39:35.586Z,16.83
2019-02-17T13:42:07.722Z,18.37
2019-02-17T13:44:38.180Z,18.80
2019-02-17T13:47:08.826Z,17.27
2019-02-17T13:49:38.220Z,16.80
2019-02-17T13:52:07.624Z,16.20
2019-02-17T13:54:36.921Z,15.97
2019-02-17T13:57:06.696Z,15.80
2019-02-17T13:59:36.034Z,16.30
2019-02-17T14:02:08.220Z,14.70
2019-02-17T14:04:37.733Z,15.13
2019-02-17T14:07:07.842Z,14.73
2019-02-17T14:09:38.746Z,15.50
2019-02-17T14:12:14.528Z,14.77
2019-02-17T14:14:44.028Z,14.90
2019-02-17T14:17:13.431Z,13.93
2019-02-17T14:19:43.115Z,13.83
2019-02-17T14:22:12.462Z,14.10
2019-02-17T14:24:42.537Z,13.17
2019-02-17T14:27:11.946Z,13.70
2019-02-17T14:29:41.269Z,11.07
2019-02-17T14:32:14.543Z,12.63
2019-02-17T14:34:45.913Z,12.10
2019-02-17T14:37:15.174Z,12.90
2019-02-17T14:39:44.790Z,11.43
2019-02-17T14:42:14.195Z,11.93
2019-02-17T14:44:43.520Z,12.40
2019-02-17T14:47:12.874Z,12.03
2019-02-17T14:49:42.535Z,11.73
2019-02-17T14:52:11.906Z,11.63
2019-02-17T14:54:42.673Z,11.50
2019-02-17T14:57:13.421Z,12.90
2019-02-17T14:59:42.805Z,12.10
2019-02-17T15:02:12.283Z,11.67
2019-02-17T15:04:41.599Z,11.70
2019-02-17T15:07:12.058Z,12.33
2019-02-17T15:09:41.565Z,11.40
2019-02-17T15:12:21.969Z,11.10
2019-02-17T15:14:51.389Z,11.77
2019-02-17T15:18:01.466Z,12.23
2019-02-17T15:20:35.495Z,11.77
2019-02-17T15:23:20.985Z,11.27
2019-02-17T15:25:53.721Z,13.17
2019-02-17T15:28:23.279Z,12.37
2019-02-17T15:30:52.721Z,11.03
2019-02-17T15:33:22.308Z,12.23
2019-02-17T15:35:54.353Z,12.03
2019-02-17T15:38:23.783Z,11.93
2019-02-17T15:40:53.006Z,11.57
2019-02-17T15:43:23.261Z,11.20
2019-02-17T15:45:53.157Z,11.67
2019-02-17T15:48:22.482Z,10.93
2019-02-17T15:50:51.835Z,11.67
2019-02-17T15:53:21.902Z,10.53
2019-02-17T15:55:51.611Z,11.40
2019-02-17T15:58:21.015Z,11.10
2019-02-17T16:00:50.384Z,12.07
2019-02-17T16:03:20.129Z,11.63
2019-02-17T16:05:49.583Z,12.53
2019-02-17T16:08:19.147Z,12.03
2019-02-17T16:10:49.439Z,10.93
2019-02-17T16:13:18.848Z,11.50
2019-02-17T16:15:48.310Z,11.37
2019-02-17T16:18:17.944Z,11.43
2019-02-17T16:20:47.306Z,11.47
2019-02-17T16:23:16.778Z,12.07
2019-02-17T16:25:46.147Z,11.17
2019-02-17T16:28:15.987Z,11.20
2019-02-17T16:30:45.303Z,11.43
2019-02-17T16:33:14.709Z,10.47
2019-02-17T16:35:44.106Z,11.33
2019-02-17T16:38:18.472Z,11.17
2019-02-17T16:40:48.026Z,11.10
2019-02-17T16:43:17.399Z,10.87
2019-02-17T16:45:46.758Z,10.73
2019-02-17T16:48:16.134Z,10.47
2019-02-17T16:50:50.321Z,9.70
2019-02-17T16:53:20.776Z,9.97
2019-02-17T16:55:50.292Z,10.00
2019-02-17T16:58:19.747Z,9.17
2019-02-17T17:00:49.194Z,10.00
2019-02-17T17:03:18.681Z,10.17
2019-02-17T17:05:48.102Z,8.73
2019-02-17T17:08:21.280Z,9.67
2019-02-17T17:10:50.770Z,9.73
2019-02-17T17:13:20.105Z,9.43
2019-02-17T17:15:49.492Z,8.97
2019-02-17T17:18:18.925Z,9.63
2019-02-17T17:20:48.308Z,8.33
2019-02-17T17:23:17.649Z,9.77
2019-02-17T17:25:47.083Z,10.27
2019-02-17T17:28:16.485Z,9.23
2019-02-17T17:30:47.301Z,9.63
2019-02-17T17:33:16.664Z,10.10
2019-02-17T17:35:46.063Z,9.07
2019-02-17T17:38:18.472Z,9.73
2019-02-17T17:40:48.080Z,10.30
2019-02-17T17:43:17.595Z,9.53
2019-02-17T17:45:49.763Z,9.53
2019-02-17T17:48:19.315Z,9.20
2019-02-17T17:50:48.778Z,8.73
2019-02-17T17:53:18.166Z,10.10
2019-02-17T17:55:47.571Z,9.07
2019-02-17T17:58:17.002Z,9.53
2019-02-17T18:00:46.343Z,9.70
2019-02-17T18:03:15.784Z,10.77
2019-02-17T18:05:45.170Z,10.00
2019-02-17T18:08:14.702Z,10.58
2019-02-17T18:10:44.074Z,10.40
2019-02-17T18:13:14.052Z,10.27
2019-02-17T18:15:43.368Z,10.20
2019-02-17T18:18:12.833Z,10.67
2019-02-17T18:20:42.202Z,10.00
2019-02-17T18:23:11.505Z,10.63
2019-02-17T18:25:40.853Z,11.00
2019-02-17T18:28:10.208Z,9.83
2019-02-17T18:30:39.536Z,9.67
2019-02-17T18:33:08.912Z,10.53
2019-02-17T18:35:38.257Z,9.63
2019-02-17T18:38:09.926Z,10.37
2019-02-17T18:40:46.066Z,10.90
2019-02-17T18:43:10.204Z,10.50
2019-02-17T18:45:39.548Z,10.10
2019-02-17T18:48:13.642Z,9.97
2019-02-17T18:50:43.061Z,9.97
2019-02-17T18:53:12.368Z,9.87
2019-02-17T18:55:41.923Z,9.40
2019-02-17T18:58:11.329Z,9.67
2019-02-17T19:00:42.932Z,10.77
2019-02-17T19:03:12.279Z,9.67
2019-02-17T19:05:41.562Z,10.03
2019-02-17T19:08:10.877Z,9.73
2019-02-17T19:10:40.160Z,10.13
2019-02-17T19:13:09.457Z,10.07
2019-02-17T19:15:38.740Z,9.90
2019-02-17T19:18:10.912Z,9.83
2019-02-17T19:20:40.487Z,9.10
2019-02-17T19:23:13.698Z,9.37
2019-02-17T19:25:43.060Z,9.93
2019-02-17T19:28:15.286Z,9.40
2019-02-17T19:30:44.582Z,9.40
2019-02-17T19:33:14.042Z,10.13
2019-02-17T19:35:43.453Z,9.80
2019-02-17T19:38:13.818Z,9.97
2019-02-17T19:40:43.219Z,10.57
2019-02-17T19:43:12.518Z,9.70
2019-02-17T19:45:41.851Z,9.27
2019-02-17T19:48:11.245Z,9.70
2019-02-17T19:50:40.630Z,10.23
2019-02-17T19:53:09.931Z,10.30
2019-02-17T19:55:39.341Z,9.83
2019-02-17T19:58:11.730Z,8.53
2019-02-17T20:00:40.955Z,9.93
2019-02-17T20:03:27.801Z,9.87
2019-02-17T20:05:59.484Z,9.90
2019-02-17T20:08:28.834Z,9.67
2019-02-17T20:10:58.223Z,9.43
2019-02-17T20:13:30.232Z,10.13
2019-02-17T20:15:59.673Z,8.93
2019-02-17T20:18:29.000Z,9.63
2019-02-17T20:21:00.085Z,9.10
2019-02-17T20:23:30.775Z,9.93
2019-02-17T20:26:00.299Z,9.83
2019-02-17T20:28:42.686Z,10.47
2019-02-17T20:31:03.506Z,9.13
2019-02-17T20:33:32.944Z,10.03
2019-02-17T20:36:03.105Z,9.27
2019-02-17T20:38:32.674Z,9.23
2019-02-17T20:41:01.929Z,8.90
2019-02-17T20:43:31.260Z,9.77
2019-02-17T20:46:00.695Z,9.23
2019-02-17T20:48:31.050Z,9.90
2019-02-17T20:51:00.469Z,9.83
2019-02-17T20:53:29.776Z,9.97
2019-02-17T20:55:59.010Z,9.50
2019-02-17T20:58:30.790Z,9.30
2019-02-17T21:01:01.020Z,9.70
2019-02-17T21:03:30.316Z,9.90
2019-02-17T21:05:59.659Z,9.83
2019-02-17T21:08:32.008Z,9.60
2019-02-17T21:11:01.419Z,10.07
2019-02-17T21:13:31.709Z,9.50
2019-02-17T21:16:00.931Z,10.00
2019-02-17T21:18:30.265Z,9.43
2019-02-17T21:20:59.649Z,9.40
2019-02-17T21:23:28.951Z,9.70
2019-02-17T21:25:58.312Z,10.20
2019-02-17T21:28:28.880Z,9.90
2019-02-17T21:30:58.129Z,10.20
2019-02-17T21:33:27.527Z,10.00
2019-02-17T21:35:57.052Z,10.00
2019-02-17T21:38:26.382Z,10.87
2019-02-17T21:40:55.704Z,9.83
2019-02-17T21:43:24.957Z,9.40
2019-02-17T21:45:54.315Z,10.87
2019-02-17T21:48:23.617Z,10.77
2019-02-17T21:50:52.950Z,12.25
2019-02-17T21:53:25.018Z,12.70
2019-02-17T21:55:54.301Z,10.97
2019-02-17T21:58:23.601Z,11.37
2019-02-17T22:00:52.941Z,11.57
2019-02-17T22:03:22.140Z,10.50
2019-02-17T22:05:51.427Z,11.63
2019-02-17T22:08:22.149Z,10.63
2019-02-17T22:10:51.433Z,11.03
2019-02-17T22:13:23.252Z,11.23
2019-02-17T22:15:52.675Z,10.43
2019-02-17T22:18:22.017Z,10.80
2019-02-17T22:20:51.319Z,10.23
2019-02-17T22:23:20.760Z,10.33
2019-02-17T22:25:50.194Z,11.17
2019-02-17T22:28:19.543Z,11.20
2019-02-17T22:30:48.999Z,11.50
2019-02-17T22:33:18.378Z,11.20
2019-02-17T22:35:47.977Z,11.53
2019-02-17T22:38:20.340Z,10.90
2019-02-17T22:41:01.377Z,11.43
2019-02-17T22:43:34.483Z,11.07
2019-02-17T22:46:09.698Z,11.83
2019-02-17T22:48:48.230Z,11.63
2019-02-17T22:51:30.112Z,11.37
2019-02-17T22:53:59.477Z,11.13
2019-02-17T22:56:28.748Z,11.30
2019-02-17T22:58:57.980Z,10.77
2019-02-17T23:01:30.950Z,11.37
2019-02-17T23:04:00.261Z,11.53
2019-02-17T23:06:31.135Z,12.60
2019-02-17T23:09:00.379Z,11.43
2019-02-17T23:11:29.678Z,11.13
2019-02-17T23:13:58.992Z,12.00
2019-02-17T23:16:28.485Z,11.53
2019-02-17T23:18:58.114Z,12.10
2019-02-17T23:21:27.394Z,11.87
2019-02-17T23:23:56.702Z,11.57
2019-02-17T23:26:26.187Z,12.00
2019-02-17T23:28:55.967Z,12.63
2019-02-17T23:31:25.338Z,11.27
2019-02-17T23:33:54.673Z,11.87
2019-02-17T23:36:24.389Z,13.10
2019-02-17T23:38:54.000Z,12.77
2019-02-17T23:41:23.466Z,12.87
2019-02-17T23:43:52.663Z,12.80
2019-02-17T23:46:22.701Z,13.13
2019-02-17T23:48:52.016Z,13.07
2019-02-17T23:51:21.620Z,12.37
2019-02-17T23:53:50.962Z,12.17
2019-02-17T23:56:20.542Z,12.50
2019-02-17T23:58:49.724Z,12.27
